createdAt,value
2018-06-08T00:00:09.525Z,101004.00
2018-06-08T00:02:38.381Z,101003.72
2018-06-08T00:05:07.187Z,101002.03
2018-06-08T00:07:36.019Z,101003.83
2018-06-08T00:10:04.935Z,100999.40
2018-06-08T00:12:33.767Z,101003.72
2018-06-08T00:15:02.616Z,100997.42
2018-06-08T00:17:31.475Z,101001.85
2018-06-08T00:20:00.293Z,101000.39
2018-06-08T00:22:29.124Z,100998.08
2018-06-08T00:24:57.985Z,100997.71
2018-06-08T00:27:26.803Z,100991.88
2018-06-08T00:29:55.633Z,100999.01
2018-06-08T00:32:24.437Z,100996.10
2018-06-08T00:34:53.265Z,100992.95
2018-06-08T00:37:22.136Z,100994.56
2018-06-08T00:39:50.985Z,100991.14
2018-06-08T00:42:19.791Z,100986.52
2018-06-08T00:44:48.601Z,100978.61
2018-06-08T00:47:17.451Z,100977.39
2018-06-08T00:49:46.249Z,100977.39
2018-06-08T00:52:15.100Z,100980.71
2018-06-08T00:54:43.946Z,100979.34
2018-06-08T00:57:12.790Z,100980.92
2018-06-08T00:59:41.641Z,100982.40
2018-06-08T01:02:10.519Z,100975.66
2018-06-08T01:04:39.333Z,100974.43
2018-06-08T01:07:08.198Z,100974.41
2018-06-08T01:09:37.105Z,100972.62
2018-06-08T01:12:05.963Z,100974.34
2018-06-08T01:14:35.486Z,100973.39
2018-06-08T01:17:04.417Z,100975.20
2018-06-08T01:19:33.972Z,100973.72
2018-06-08T01:22:03.122Z,100974.56
2018-06-08T01:24:32.341Z,100975.45
2018-06-08T01:27:01.196Z,100968.86
2018-06-08T01:29:30.011Z,100969.44
2018-06-08T01:31:58.899Z,100966.17
2018-06-08T01:34:27.688Z,100969.89
2018-06-08T01:36:56.478Z,100965.79
2018-06-08T01:39:25.275Z,100973.38
2018-06-08T01:41:54.092Z,100970.88
2018-06-08T01:44:22.928Z,100967.59
2018-06-08T01:46:51.748Z,100966.69
2018-06-08T01:49:20.554Z,100970.83
2018-06-08T01:51:49.368Z,100965.00
2018-06-08T01:54:18.198Z,100968.00
2018-06-08T01:56:47.389Z,100967.42
2018-06-08T01:59:16.250Z,100962.22
2018-06-08T02:01:45.106Z,100959.81
2018-06-08T02:04:13.973Z,100966.36
2018-06-08T02:06:42.855Z,100960.91
2018-06-08T02:09:11.741Z,100959.61
2018-06-08T02:11:40.629Z,100965.10
2018-06-08T02:14:09.549Z,100965.11
2018-06-08T02:16:38.411Z,100972.16
2018-06-08T02:19:07.251Z,100971.96
2018-06-08T02:21:36.061Z,100962.78
2018-06-08T02:24:04.942Z,100958.41
2018-06-08T02:26:33.812Z,100954.36
2018-06-08T02:29:02.625Z,100949.88
2018-06-08T02:31:31.510Z,100956.20
2018-06-08T02:34:00.386Z,100955.47
2018-06-08T02:36:29.252Z,100955.94
2018-06-08T02:38:58.146Z,100956.23
2018-06-08T02:41:27.002Z,100963.94
2018-06-08T02:43:55.846Z,100951.45
2018-06-08T02:46:24.737Z,100956.61
2018-06-08T02:48:53.579Z,100948.72
2018-06-08T02:51:22.441Z,100954.92
2018-06-08T02:53:51.297Z,100956.27
2018-06-08T02:56:20.089Z,100960.95
2018-06-08T02:58:48.922Z,100962.72
2018-06-08T03:01:17.789Z,100961.20
2018-06-08T03:03:46.639Z,100959.81
2018-06-08T03:06:15.522Z,100962.25
2018-06-08T03:08:44.359Z,100958.67
2018-06-08T03:11:13.186Z,100959.24
2018-06-08T03:13:42.025Z,100959.07
2018-06-08T03:16:10.930Z,100954.92
2018-06-08T03:18:39.822Z,100963.90
2018-06-08T03:21:08.729Z,100971.86
2018-06-08T03:23:37.601Z,100968.01
2018-06-08T03:26:06.560Z,100967.17
2018-06-08T03:28:41.317Z,100966.59
2018-06-08T03:31:10.148Z,100961.31
2018-06-08T03:33:39.005Z,100966.83
2018-06-08T03:36:07.885Z,100968.07
2018-06-08T03:38:36.764Z,100972.81
2018-06-08T03:41:05.663Z,100971.59
2018-06-08T03:43:34.575Z,100975.81
2018-06-08T03:46:03.458Z,100983.00
2018-06-08T03:48:32.313Z,100982.00
2018-06-08T03:51:01.137Z,100980.28
2018-06-08T03:53:30.035Z,100974.52
2018-06-08T03:55:58.954Z,100971.34
2018-06-08T03:58:27.889Z,100971.64
2018-06-08T04:00:56.764Z,100967.42
2018-06-08T04:03:25.648Z,100973.00
2018-06-08T04:05:54.582Z,100967.83
2018-06-08T04:08:23.427Z,100955.98
2018-06-08T04:10:52.367Z,100964.34
2018-06-08T04:13:21.312Z,100963.23
2018-06-08T04:15:50.204Z,100963.48
2018-06-08T04:18:19.156Z,100970.34
2018-06-08T04:20:48.103Z,100969.39
2018-06-08T04:23:16.978Z,100971.63
2018-06-08T04:25:45.950Z,100968.76
2018-06-08T04:28:15.213Z,100971.91
2018-06-08T04:30:44.359Z,100977.58
2018-06-08T04:33:16.159Z,100980.86
2018-06-08T04:35:45.762Z,100985.63
2018-06-08T04:38:14.736Z,100978.58
2018-06-08T04:40:43.732Z,100975.63
2018-06-08T04:43:12.630Z,100980.13
2018-06-08T04:45:41.519Z,100980.36
2018-06-08T04:48:10.485Z,100982.20
2018-06-08T04:50:39.395Z,100987.81
2018-06-08T04:53:08.240Z,100980.00
2018-06-08T04:55:37.121Z,100983.35
2018-06-08T04:58:06.041Z,100983.21
2018-06-08T05:00:34.952Z,100983.32
2018-06-08T05:03:03.858Z,100982.08
2018-06-08T05:05:32.737Z,100992.86
2018-06-08T05:08:01.589Z,100989.19
2018-06-08T05:10:30.986Z,100981.53
2018-06-08T05:12:59.915Z,100981.34
2018-06-08T05:15:28.780Z,100982.07
2018-06-08T05:17:57.707Z,100990.33
2018-06-08T05:20:26.713Z,100990.15
2018-06-08T05:22:55.628Z,100989.48
2018-06-08T05:25:24.606Z,100991.64
2018-06-08T05:27:53.497Z,100991.25
2018-06-08T05:30:24.507Z,100997.08
2018-06-08T05:32:53.407Z,100986.73
2018-06-08T05:35:22.450Z,100992.39
2018-06-08T05:37:57.709Z,100989.54
2018-06-08T05:40:26.630Z,100989.65
2018-06-08T05:42:55.501Z,100986.27
2018-06-08T05:45:24.429Z,100990.55
2018-06-08T05:47:53.341Z,100989.82
2018-06-08T05:50:22.287Z,100991.84
2018-06-08T05:52:51.221Z,100992.57
2018-06-08T05:55:20.206Z,100990.13
2018-06-08T05:57:49.148Z,100993.47
2018-06-08T06:00:18.065Z,100993.23
2018-06-08T06:02:46.943Z,100991.89
2018-06-08T06:05:15.786Z,100992.67
2018-06-08T06:07:44.705Z,100989.63
2018-06-08T06:10:13.694Z,100993.49
2018-06-08T06:12:42.592Z,100996.50
2018-06-08T06:15:11.481Z,100995.19
2018-06-08T06:17:40.321Z,100997.50
2018-06-08T06:20:09.295Z,100992.55
2018-06-08T06:22:38.195Z,100998.67
2018-06-08T06:25:07.154Z,101000.84
2018-06-08T06:27:36.071Z,101016.20
2018-06-08T06:30:05.298Z,101011.13
2018-06-08T06:32:34.181Z,101013.00
2018-06-08T06:35:03.080Z,101009.77
2018-06-08T06:37:32.127Z,101010.13
2018-06-08T06:40:01.093Z,101012.73
2018-06-08T06:42:29.991Z,101016.24
2018-06-08T06:44:58.922Z,101020.28
2018-06-08T06:47:27.804Z,101022.80
2018-06-08T06:49:56.689Z,101018.89
2018-06-08T06:52:25.587Z,101017.26
2018-06-08T06:54:54.499Z,101018.94
2018-06-08T06:57:23.378Z,101017.22
2018-06-08T06:59:52.285Z,101017.84
2018-06-08T07:02:21.229Z,101016.34
2018-06-08T07:04:50.145Z,101018.62
2018-06-08T07:07:19.051Z,101018.84
2018-06-08T07:09:47.941Z,101022.02
2018-06-08T07:12:16.800Z,101022.77
2018-06-08T07:14:45.729Z,101017.20
2018-06-08T07:17:14.595Z,101021.77
2018-06-08T07:19:43.446Z,101021.73
2018-06-08T07:22:12.316Z,101021.63
2018-06-08T07:24:41.236Z,101018.03
2018-06-08T07:27:10.123Z,101022.89
2018-06-08T07:29:39.057Z,101021.06
2018-06-08T07:32:07.917Z,101028.32
2018-06-08T07:34:36.822Z,101027.52
2018-06-08T07:37:05.713Z,101031.77
2018-06-08T07:39:34.731Z,101029.46
2018-06-08T07:42:03.606Z,101035.31
2018-06-08T07:44:32.465Z,101022.17
2018-06-08T07:47:01.367Z,101029.66
2018-06-08T07:49:30.348Z,101016.79
2018-06-08T07:51:59.270Z,101017.44
2018-06-08T07:54:28.153Z,101009.64
2018-06-08T07:56:57.515Z,101012.44
2018-06-08T07:59:26.416Z,101013.55
2018-06-08T08:01:55.316Z,101010.81
2018-06-08T08:04:24.200Z,101010.36
2018-06-08T08:06:53.117Z,101007.91
2018-06-08T08:09:22.067Z,101005.55
2018-06-08T08:11:50.956Z,101002.45
2018-06-08T08:14:19.850Z,101007.56
2018-06-08T08:16:48.725Z,101005.42
2018-06-08T08:19:17.690Z,101006.01
2018-06-08T08:21:46.594Z,101006.91
2018-06-08T08:24:15.477Z,101009.94
2018-06-08T08:26:44.400Z,101015.83
2018-06-08T08:29:13.256Z,101019.91
2018-06-08T08:31:42.179Z,101011.20
2018-06-08T08:34:11.070Z,101010.44
2018-06-08T08:36:39.970Z,101018.38
2018-06-08T08:39:09.613Z,101003.86
2018-06-08T08:41:38.497Z,101005.38
2018-06-08T08:44:07.349Z,101011.38
2018-06-08T08:46:36.237Z,101016.28
2018-06-08T08:49:05.126Z,101015.66
2018-06-08T08:51:34.122Z,101017.56
2018-06-08T08:54:03.009Z,101012.87
2018-06-08T08:56:31.934Z,101015.73
2018-06-08T08:59:00.858Z,101007.84
2018-06-08T09:01:29.697Z,101014.66
2018-06-08T09:03:58.574Z,101010.30
2018-06-08T09:06:27.390Z,101011.84
2018-06-08T09:08:56.273Z,101013.28
2018-06-08T09:11:25.224Z,101016.06
2018-06-08T09:13:54.086Z,101011.92
2018-06-08T09:16:22.953Z,101010.73
2018-06-08T09:18:51.836Z,101014.23
2018-06-08T09:21:20.706Z,101011.05
2018-06-08T09:23:49.575Z,101007.65
2018-06-08T09:26:18.501Z,101015.73
2018-06-08T09:28:47.355Z,101008.45
2018-06-08T09:31:16.245Z,101008.88
2018-06-08T09:33:45.109Z,101015.16
2018-06-08T09:36:14.049Z,101005.91
2018-06-08T09:38:42.978Z,101008.43
2018-06-08T09:41:11.870Z,101011.20
2018-06-08T09:43:40.791Z,101009.13
2018-06-08T09:46:09.788Z,101007.05
2018-06-08T09:48:38.665Z,101012.28
2018-06-08T09:51:07.574Z,101002.84
2018-06-08T09:53:59.312Z,101008.33
2018-06-08T09:56:28.178Z,101007.10
2018-06-08T09:58:57.083Z,101004.45
2018-06-08T10:01:26.001Z,101007.32
2018-06-08T10:03:54.917Z,101006.00
2018-06-08T10:06:23.788Z,101011.67
2018-06-08T10:08:52.676Z,101005.16
2018-06-08T10:11:21.597Z,101008.48
2018-06-08T10:13:50.476Z,101003.83
2018-06-08T10:16:19.384Z,101006.72
2018-06-08T10:18:48.295Z,101010.15
2018-06-08T10:21:17.188Z,101001.14
2018-06-08T10:23:46.078Z,100996.30
2018-06-08T10:26:15.006Z,100990.14
2018-06-08T10:28:43.890Z,100992.95
2018-06-08T10:31:12.777Z,100984.48
2018-06-08T10:33:41.655Z,100983.64
2018-06-08T10:36:10.577Z,100985.14
2018-06-08T10:38:39.456Z,100984.67
2018-06-08T10:41:08.305Z,100979.14
2018-06-08T10:43:37.204Z,100971.83
2018-06-08T10:46:06.170Z,100974.77
2018-06-08T10:48:35.061Z,100974.59
2018-06-08T10:51:03.969Z,100967.83
2018-06-08T10:53:32.829Z,100974.22
2018-06-08T10:56:01.748Z,100964.98
2018-06-08T10:58:30.667Z,100960.94
2018-06-08T11:00:59.557Z,100962.20
2018-06-08T11:03:28.459Z,100965.38
2018-06-08T11:05:57.355Z,100963.05
2018-06-08T11:08:26.218Z,100959.25
2018-06-08T11:10:56.066Z,100960.43
2018-06-08T11:13:24.958Z,100953.30
2018-06-08T11:15:53.814Z,100958.48
2018-06-08T11:18:22.676Z,100959.11
2018-06-08T11:20:51.534Z,100953.80
2018-06-08T11:23:20.430Z,100955.13
2018-06-08T11:25:49.284Z,100954.45
2018-06-08T11:28:18.178Z,100953.58
2018-06-08T11:30:47.049Z,100946.91
2018-06-08T11:33:15.929Z,100941.11
2018-06-08T11:35:44.823Z,100933.72
2018-06-08T11:38:14.670Z,100931.59
2018-06-08T11:40:43.569Z,100935.69
2018-06-08T11:43:12.417Z,100934.32
2018-06-08T11:45:41.295Z,100937.44
2018-06-08T11:48:11.075Z,100934.91
2018-06-08T11:50:39.959Z,100936.11
2018-06-08T11:53:08.843Z,100928.09
2018-06-08T11:55:37.744Z,100927.26
2018-06-08T11:58:06.662Z,100919.60
2018-06-08T12:00:35.560Z,100920.79
2018-06-08T12:03:04.495Z,100913.62
2018-06-08T12:05:33.409Z,100912.58
2018-06-08T12:08:02.324Z,100918.48
2018-06-08T12:10:31.311Z,100911.63
2018-06-08T12:13:00.154Z,100906.33
2018-06-08T12:15:31.664Z,100912.14
2018-06-08T12:18:00.722Z,100899.83
2018-06-08T12:20:29.681Z,100901.87
2018-06-08T12:22:58.544Z,100904.38
2018-06-08T12:25:27.461Z,100893.18
2018-06-08T12:27:56.399Z,100897.77
2018-06-08T12:30:25.325Z,100894.23
2018-06-08T12:32:54.224Z,100886.92
2018-06-08T12:35:23.130Z,100889.23
2018-06-08T12:37:52.083Z,100886.97
2018-06-08T12:40:21.175Z,100890.36
2018-06-08T12:42:50.050Z,100881.45
2018-06-08T12:45:19.043Z,100877.27
2018-06-08T12:47:47.934Z,100875.84
2018-06-08T12:50:16.863Z,100874.88
2018-06-08T12:52:45.790Z,100875.27
2018-06-08T12:55:14.624Z,100869.51
2018-06-08T12:57:43.489Z,100865.46
2018-06-08T13:00:12.365Z,100870.09
2018-06-08T13:02:41.227Z,100868.77
2018-06-08T13:05:10.042Z,100866.33
2018-06-08T13:07:38.890Z,100859.23
2018-06-08T13:10:07.767Z,100863.49
2018-06-08T13:12:36.605Z,100867.91
2018-06-08T13:15:05.510Z,100867.37
2018-06-08T13:17:34.457Z,100861.76
2018-06-08T13:20:03.450Z,100868.47
2018-06-08T13:22:32.823Z,100868.63
2018-06-08T13:25:01.716Z,100868.27
2018-06-08T13:27:30.589Z,100868.81
2018-06-08T13:29:59.557Z,100867.73
2018-06-08T13:32:28.432Z,100862.21
2018-06-08T13:34:57.411Z,100864.25
2018-06-08T13:37:26.285Z,100870.89
2018-06-08T13:39:55.213Z,100867.06
2018-06-08T13:42:24.408Z,100863.85
2018-06-08T13:44:53.281Z,100857.69
2018-06-08T13:47:22.553Z,100864.45
2018-06-08T13:49:51.437Z,100865.35
2018-06-08T13:52:20.322Z,100866.02
2018-06-08T13:54:49.199Z,100859.73
2018-06-08T13:57:18.061Z,100862.53
2018-06-08T13:59:47.023Z,100859.33
2018-06-08T14:02:15.915Z,100858.59
2018-06-08T14:04:45.054Z,100863.85
2018-06-08T14:07:13.947Z,100866.95
2018-06-08T14:09:42.815Z,100868.51
2018-06-08T14:12:11.741Z,100868.50
2018-06-08T14:14:40.674Z,100867.83
2018-06-08T14:17:09.560Z,100864.30
2018-06-08T14:19:39.242Z,100859.23
2018-06-08T14:22:08.091Z,100857.47
2018-06-08T14:24:37.071Z,100850.64
2018-06-08T14:27:05.930Z,100852.66
2018-06-08T14:29:34.879Z,100845.59
2018-06-08T14:32:04.010Z,100850.33
2018-06-08T14:34:32.907Z,100846.27
2018-06-08T14:37:01.820Z,100843.48
2018-06-08T14:39:30.704Z,100842.66
2018-06-08T14:41:59.608Z,100839.65
2018-06-08T14:44:31.714Z,100845.33
2018-06-08T14:47:00.713Z,100838.48
2018-06-08T14:49:29.899Z,100836.23
2018-06-08T14:51:59.289Z,100834.67
2018-06-08T14:54:28.180Z,100828.45
2018-06-08T14:56:57.073Z,100827.59
2018-06-08T14:59:26.007Z,100820.78
2018-06-08T15:01:54.920Z,100823.53
2018-06-08T15:04:23.764Z,100820.58
2018-06-08T15:06:52.741Z,100818.58
2018-06-08T15:09:21.694Z,100826.14
2018-06-08T15:11:50.587Z,100820.23
2018-06-08T15:14:19.604Z,100816.92
2018-06-08T15:16:48.477Z,100826.66
2018-06-08T15:19:17.354Z,100819.72
2018-06-08T15:21:46.209Z,100811.51
2018-06-08T15:24:15.091Z,100809.13
2018-06-08T15:26:44.034Z,100811.72
2018-06-08T15:29:12.977Z,100817.74
2018-06-08T15:31:47.181Z,100816.27
2018-06-08T15:34:19.234Z,100812.86
2018-06-08T15:36:51.133Z,100815.05
2018-06-08T15:39:25.772Z,100816.28
2018-06-08T15:42:04.226Z,100815.28
2018-06-08T15:44:44.955Z,100814.71
2018-06-08T15:47:21.053Z,100810.05
2018-06-08T15:50:00.346Z,100808.84
2018-06-08T15:52:32.819Z,100802.63
2018-06-08T15:55:01.770Z,100807.13
2018-06-08T15:57:30.719Z,100809.11
2018-06-08T16:00:00.672Z,100814.61
2018-06-08T16:02:29.810Z,100813.81
2018-06-08T16:04:58.721Z,100811.95
2018-06-08T16:07:27.564Z,100818.97
2018-06-08T16:09:56.481Z,100814.19
2018-06-08T16:12:25.464Z,100809.99
2018-06-08T16:14:54.353Z,100804.77
2018-06-08T16:17:23.295Z,100800.41
2018-06-08T16:19:53.675Z,100802.28
2018-06-08T16:22:22.532Z,100801.20
2018-06-08T16:24:51.565Z,100797.80
2018-06-08T16:27:20.515Z,100792.61
2018-06-08T16:29:49.468Z,100795.63
2018-06-08T16:32:18.884Z,100801.20
2018-06-08T16:34:47.911Z,100801.08
2018-06-08T16:37:16.859Z,100798.78
2018-06-08T16:39:45.787Z,100797.03
2018-06-08T16:42:14.629Z,100804.16
2018-06-08T16:44:44.445Z,100804.30
2018-06-08T16:47:13.342Z,100805.06
2018-06-08T16:49:42.228Z,100803.99
2018-06-08T16:52:11.082Z,100803.70
2018-06-08T16:54:40.009Z,100810.24
2018-06-08T16:57:08.969Z,100809.56
2018-06-08T16:59:37.917Z,100809.73
2018-06-08T17:02:06.840Z,100815.26
2018-06-08T17:04:35.724Z,100818.38
2018-06-08T17:07:04.630Z,100822.61
2018-06-08T17:09:33.564Z,100815.55
2018-06-08T17:12:02.443Z,100813.81
2018-06-08T17:14:31.357Z,100813.82
2018-06-08T17:17:00.358Z,100819.72
2018-06-08T17:19:29.233Z,100821.20
2018-06-08T17:21:58.153Z,100823.19
2018-06-08T17:24:27.049Z,100823.37
2018-06-08T17:26:55.997Z,100826.80
2018-06-08T17:29:24.896Z,100821.85
2018-06-08T17:31:53.805Z,100825.23
2018-06-08T17:34:22.682Z,100831.30
2018-06-08T17:36:57.834Z,100832.11
2018-06-08T17:39:26.762Z,100831.49
2018-06-08T17:41:55.665Z,100835.09
2018-06-08T17:44:24.577Z,100839.06
2018-06-08T17:46:53.526Z,100837.98
2018-06-08T17:49:22.446Z,100834.64
2018-06-08T17:51:51.332Z,100835.01
2018-06-08T17:54:20.220Z,100828.15
2018-06-08T17:56:49.134Z,100832.65
2018-06-08T17:59:18.121Z,100834.32
2018-06-08T18:01:47.123Z,100828.48
2018-06-08T18:04:16.041Z,100838.25
2018-06-08T18:06:44.939Z,100848.59
2018-06-08T18:09:13.833Z,100846.77
2018-06-08T18:11:42.777Z,100845.09
2018-06-08T18:14:11.672Z,100836.78
2018-06-08T18:16:40.560Z,100842.30
2018-06-08T18:19:09.445Z,100840.13
2018-06-08T18:21:38.391Z,100842.88
2018-06-08T18:24:07.307Z,100844.31
2018-06-08T18:26:36.198Z,100846.64
2018-06-08T18:29:05.582Z,100842.38
2018-06-08T18:31:34.526Z,100846.27
2018-06-08T18:34:03.470Z,100847.27
2018-06-08T18:36:32.372Z,100845.44
2018-06-08T18:39:01.283Z,100850.29
2018-06-08T18:41:30.189Z,100855.36
2018-06-08T18:43:59.076Z,100858.35
2018-06-08T18:46:27.949Z,100855.20
2018-06-08T18:48:56.894Z,100861.25
2018-06-08T18:51:25.820Z,100856.52
2018-06-08T18:53:54.729Z,100863.04
2018-06-08T18:56:23.645Z,100858.91
2018-06-08T18:58:52.565Z,100863.59
2018-06-08T19:01:21.492Z,100866.66
2018-06-08T19:03:50.418Z,100870.05
2018-06-08T19:06:19.375Z,100865.50
2018-06-08T19:08:48.328Z,100867.37
2018-06-08T19:11:18.877Z,100869.38
2018-06-08T19:13:47.791Z,100862.36
2018-06-08T19:16:16.647Z,100865.70
2018-06-08T19:18:45.498Z,100858.52
2018-06-08T19:21:14.325Z,100859.20
2018-06-08T19:23:43.148Z,100859.02
2018-06-08T19:26:11.966Z,100866.55
2018-06-08T19:28:46.719Z,100865.88
2018-06-08T19:31:19.065Z,100865.88
2018-06-08T19:33:49.942Z,100868.06
2018-06-08T19:36:19.123Z,100874.06
2018-06-08T19:38:54.702Z,100872.38
2018-06-08T19:41:25.618Z,100874.37
2018-06-08T19:43:55.310Z,100875.20
2018-06-08T19:46:24.196Z,100875.20
2018-06-08T19:49:00.959Z,100878.06
2018-06-08T19:51:35.276Z,100878.53
2018-06-08T19:54:10.165Z,100874.22
2018-06-08T19:56:50.006Z,100877.52
2018-06-08T19:59:27.792Z,100881.31
2018-06-08T20:02:03.821Z,100880.13
2018-06-08T20:04:40.597Z,100882.13
2018-06-08T20:07:13.036Z,100887.27
2018-06-08T20:09:51.961Z,100886.53
2018-06-08T20:12:30.794Z,100888.88
2018-06-08T20:15:07.794Z,100894.72
2018-06-08T20:17:38.272Z,100893.89
2018-06-08T20:20:12.841Z,100898.20
2018-06-08T20:22:43.076Z,100895.52
2018-06-08T20:25:12.626Z,100901.66
2018-06-08T20:27:47.244Z,100903.97
2018-06-08T20:30:23.593Z,100907.66
2018-06-08T20:33:06.017Z,100909.77
2018-06-08T20:35:43.910Z,100905.61
2018-06-08T20:38:17.343Z,100903.33
2018-06-08T20:40:46.279Z,100905.50
2018-06-08T20:43:15.203Z,100902.67
2018-06-08T20:45:52.560Z,100914.24
2018-06-08T20:48:29.105Z,100910.27
2018-06-08T20:51:05.623Z,100909.34
2018-06-08T20:53:41.371Z,100909.80
2018-06-08T20:56:12.605Z,100904.09
2018-06-08T20:58:51.528Z,100908.73
2018-06-08T21:01:20.922Z,100898.95
2018-06-08T21:03:51.314Z,100905.95
2018-06-08T21:06:21.234Z,100911.06
2018-06-08T21:08:50.299Z,100912.08
2018-06-08T21:11:19.573Z,100906.48
2018-06-08T21:13:49.090Z,100903.63
2018-06-08T21:16:19.458Z,100913.11
2018-06-08T21:18:48.588Z,100910.93
2018-06-08T21:21:18.276Z,100916.45
2018-06-08T21:23:48.162Z,100925.20
2018-06-08T21:26:22.174Z,100925.49
2018-06-08T21:28:53.165Z,100924.02
2018-06-08T21:31:22.737Z,100926.91
2018-06-08T21:33:52.149Z,100925.27
2018-06-08T21:36:22.504Z,100925.36
2018-06-08T21:38:59.831Z,100929.42
2018-06-08T21:41:30.008Z,100928.09
2018-06-08T21:43:58.852Z,100931.44
2018-06-08T21:46:34.107Z,100932.08
2018-06-08T21:49:08.061Z,100936.81
2018-06-08T21:51:38.267Z,100933.16
2018-06-08T21:54:14.065Z,100938.92
2018-06-08T21:56:53.552Z,100940.91
2018-06-08T21:59:32.219Z,100934.59
2018-06-08T22:02:10.725Z,100936.14
2018-06-08T22:04:47.979Z,100940.62
2018-06-08T22:07:26.536Z,100942.88
2018-06-08T22:10:04.917Z,100950.19
2018-06-08T22:12:42.856Z,100944.72
2018-06-08T22:15:22.025Z,100939.83
2018-06-08T22:17:55.418Z,100940.75
2018-06-08T22:20:31.607Z,100937.05
2018-06-08T22:23:11.360Z,100943.46
2018-06-08T22:25:52.081Z,100948.08
2018-06-08T22:28:20.962Z,100944.17
2018-06-08T22:30:49.910Z,100940.22
2018-06-08T22:33:18.772Z,100942.66
2018-06-08T22:35:47.673Z,100941.65
2018-06-08T22:38:16.569Z,100948.19
2018-06-08T22:40:45.489Z,100939.58
2018-06-08T22:43:14.349Z,100942.52
2018-06-08T22:45:43.167Z,100944.68
2018-06-08T22:48:12.429Z,100952.16
2018-06-08T22:50:41.314Z,100942.45
2018-06-08T22:53:10.174Z,100944.47
2018-06-08T22:55:39.009Z,100943.70
2018-06-08T22:58:07.881Z,100935.39
2018-06-08T23:00:36.745Z,100929.73
2018-06-08T23:03:05.589Z,100935.05
2018-06-08T23:05:34.505Z,100928.58
2018-06-08T23:08:03.339Z,100929.20
2018-06-08T23:10:32.251Z,100925.61
2018-06-08T23:13:01.122Z,100921.06
2018-06-08T23:15:29.968Z,100930.84
2018-06-08T23:17:58.778Z,100924.34
2018-06-08T23:20:27.563Z,100926.16
2018-06-08T23:22:56.413Z,100922.25
2018-06-08T23:25:25.285Z,100919.69
2018-06-08T23:27:54.191Z,100932.97
2018-06-08T23:30:23.146Z,100925.61
2018-06-08T23:32:52.037Z,100926.16
2018-06-08T23:35:20.927Z,100927.41
2018-06-08T23:37:49.738Z,100925.48
2018-06-08T23:40:18.671Z,100923.58
2018-06-08T23:42:47.529Z,100918.97
2018-06-08T23:45:16.445Z,100921.77
2018-06-08T23:47:45.263Z,100915.22
2018-06-08T23:50:14.093Z,100917.38
2018-06-08T23:52:42.997Z,100911.23
2018-06-08T23:55:11.836Z,100905.72
2018-06-08T23:57:40.746Z,100908.50
